Time;durP1;ratioP1;P1;durP2;ratioP2;P2;SDS_P1;SDS_P2;PMS_P1;PMS_P2;Temp;Humidity;BMP_temperature;BMP_pressure;BME280_temperature;BME280_humidity;BME280_pressure;Samples;Min_cycle;Max_cycle;Signal;HPM_P1;HPM_P2
2021/08/14 00:01:20;;;;;;;5.45;4.05;;;;;;;;;;5092919;28;20020;-45
2021/08/14 00:03:46;;;;;;;5.90;4.60;;;;;;;;;;5092971;28;20020;-45
2021/08/14 00:06:15;;;;;;;5.95;4.20;;;;;;;;;;5074587;28;20028;-47
2021/08/14 00:08:41;;;;;;;4.82;3.95;;;;;;;;;;5092814;28;20032;-47
2021/08/14 00:11:07;;;;;;;6.65;4.05;;;;;;;;;;5092841;28;20429;-45
2021/08/14 00:13:33;;;;;;;6.40;4.53;;;;;;;;;;5092721;28;20024;-44
2021/08/14 00:15:59;;;;;;;6.63;4.75;;;;;;;;;;5092816;28;20054;-44
2021/08/14 00:18:26;;;;;;;6.38;4.03;;;;;;;;;;5092756;28;20052;-43
2021/08/14 00:20:52;;;;;;;5.25;4.72;;;;;;;;;;5092796;28;20024;-44
2021/08/14 00:23:18;;;;;;;6.70;4.57;;;;;;;;;;5092612;28;20028;-45
2021/08/14 00:25:44;;;;;;;5.90;4.30;;;;;;;;;;5092511;28;20049;-44
2021/08/14 00:28:10;;;;;;;4.82;4.10;;;;;;;;;;5092313;28;20467;-47
2021/08/14 00:30:36;;;;;;;4.72;3.85;;;;;;;;;;5092248;28;20046;-45
2021/08/14 00:33:02;;;;;;;6.15;4.47;;;;;;;;;;5092257;28;20024;-47
2021/08/14 00:35:28;;;;;;;6.13;4.50;;;;;;;;;;5072057;28;20031;-44
2021/08/14 00:37:54;;;;;;;5.40;4.63;;;;;;;;;;5072063;28;20475;-44
2021/08/14 00:40:20;;;;;;;6.47;4.85;;;;;;;;;;5071882;28;20021;-44
2021/08/14 00:42:46;;;;;;;7.72;4.60;;;;;;;;;;5072065;28;20170;-45
2021/08/14 00:45:12;;;;;;;6.50;5.13;;;;;;;;;;5071840;28;20021;-45
2021/08/14 00:47:42;;;;;;;8.20;5.55;;;;;;;;;;5071931;28;20495;-44
2021/08/14 00:50:08;;;;;;;9.20;5.43;;;;;;;;;;5071868;28;20026;-45
2021/08/14 00:52:34;;;;;;;7.50;5.05;;;;;;;;;;5071745;28;20021;-44
2021/08/14 00:55:01;;;;;;;7.65;5.70;;;;;;;;;;5071626;28;20021;-43
2021/08/14 00:57:27;;;;;;;9.25;5.35;;;;;;;;;;5053655;28;20497;-44
2021/08/14 00:59:53;;;;;;;6.07;5.20;;;;;;;;;;5071845;28;20506;-44
2021/08/14 01:02:20;;;;;;;5.65;5.05;;;;;;;;;;5071694;28;20031;-44
2021/08/14 01:04:47;;;;;;;6.93;5.30;;;;;;;;;;5071858;28;20024;-44
2021/08/14 01:07:14;;;;;;;6.55;5.50;;;;;;;;;;5071762;28;20028;-43
2021/08/14 01:09:40;;;;;;;7.88;5.10;;;;;;;;;;5071639;28;20043;-43
2021/08/14 01:12:07;;;;;;;11.10;5.93;;;;;;;;;;5071743;28;20380;-44
2021/08/14 01:14:33;;;;;;;7.20;5.78;;;;;;;;;;5071784;28;20100;-45
2021/08/14 01:16:59;;;;;;;6.35;5.30;;;;;;;;;;5071656;28;20059;-45
2021/08/14 01:19:26;;;;;;;7.50;5.65;;;;;;;;;;5071559;28;20111;-44
2021/08/14 01:21:53;;;;;;;6.82;5.10;;;;;;;;;;5071551;28;20032;-45
2021/08/14 01:24:20;;;;;;;7.07;5.65;;;;;;;;;;5071622;28;20031;-48
2021/08/14 01:26:46;;;;;;;8.43;5.55;;;;;;;;;;5071604;28;20464;-44
2021/08/14 01:29:12;;;;;;;8.35;5.88;;;;;;;;;;5071451;28;20060;-45
2021/08/14 01:31:39;;;;;;;8.85;6.40;;;;;;;;;;5071580;28;20024;-45
2021/08/14 01:34:05;;;;;;;10.88;6.43;;;;;;;;;;5071469;28;20025;-45
2021/08/14 01:36:31;;;;;;;8.52;6.05;;;;;;;;;;5071430;28;20395;-45
2021/08/14 01:39:01;;;;;;;6.40;5.40;;;;;;;;;;5071266;28;20028;-46
2021/08/14 01:41:28;;;;;;;9.02;6.60;;;;;;;;;;5071384;28;20052;-44
2021/08/14 01:43:54;;;;;;;7.25;6.43;;;;;;;;;;5071385;28;20055;-43
2021/08/14 01:46:20;;;;;;;8.60;6.53;;;;;;;;;;5053474;28;20055;-44
2021/08/14 01:48:46;;;;;;;10.77;6.90;;;;;;;;;;5071322;28;20387;-44
2021/08/14 01:51:12;;;;;;;9.73;6.47;;;;;;;;;;5071327;28;20521;-44
2021/08/14 01:53:38;;;;;;;9.70;7.50;;;;;;;;;;5071418;28;20051;-44
2021/08/14 01:56:04;;;;;;;10.05;7.18;;;;;;;;;;5071448;28;20029;-44
2021/08/14 01:58:30;;;;;;;7.68;6.28;;;;;;;;;;5071365;28;20074;-45
2021/08/14 02:00:56;;;;;;;8.80;6.95;;;;;;;;;;5071158;28;20029;-44
2021/08/14 02:03:22;;;;;;;9.93;6.40;;;;;;;;;;5071152;28;20056;-43
2021/08/14 02:05:48;;;;;;;14.23;7.45;;;;;;;;;;5071712;28;20029;-44
2021/08/14 02:08:14;;;;;;;9.68;7.45;;;;;;;;;;5074750;28;20029;-44
2021/08/14 02:10:40;;;;;;;10.05;7.35;;;;;;;;;;5074697;28;20032;-44
2021/08/14 02:13:09;;;;;;;8.00;6.63;;;;;;;;;;5074761;28;20031;-44
2021/08/14 02:15:35;;;;;;;10.00;7.47;;;;;;;;;;5074823;28;20032;-44
2021/08/14 02:18:01;;;;;;;12.60;8.15;;;;;;;;;;5074589;28;20049;-48
2021/08/14 02:20:27;;;;;;;9.85;7.35;;;;;;;;;;5074720;28;20028;-46
2021/08/14 02:22:53;;;;;;;11.02;8.80;;;;;;;;;;5074601;28;20025;-44
2021/08/14 02:25:19;;;;;;;13.23;7.75;;;;;;;;;;5074602;28;20028;-44
2021/08/14 02:27:45;;;;;;;10.57;8.05;;;;;;;;;;5056551;28;20498;-44
2021/08/14 02:30:12;;;;;;;12.20;8.05;;;;;;;;;;5074497;28;20115;-43
2021/08/14 02:32:38;;;;;;;10.73;7.78;;;;;;;;;;5074499;28;20150;-45
2021/08/14 02:35:04;;;;;;;9.20;6.93;;;;;;;;;;5074464;28;20058;-45
2021/08/14 02:37:30;;;;;;;10.20;7.93;;;;;;;;;;5074199;28;20021;-44
2021/08/14 02:39:56;;;;;;;12.27;8.30;;;;;;;;;;5074224;28;20036;-46
2021/08/14 02:42:23;;;;;;;12.38;8.05;;;;;;;;;;5074227;28;20036;-45
2021/08/14 02:44:49;;;;;;;9.13;7.10;;;;;;;;;;5074092;28;20487;-43
2021/08/14 02:47:15;;;;;;;7.85;6.63;;;;;;;;;;5074109;28;20028;-48
2021/08/14 02:49:41;;;;;;;9.32;6.75;;;;;;;;;;5073961;28;20486;-45
2021/08/14 02:52:07;;;;;;;9.38;7.22;;;;;;;;;;5056056;28;20086;-45
2021/08/14 02:54:33;;;;;;;13.93;9.55;;;;;;;;;;5073986;28;20379;-44
2021/08/14 02:56:59;;;;;;;12.43;7.75;;;;;;;;;;5074187;28;20521;-45
2021/08/14 02:59:25;;;;;;;10.27;7.93;;;;;;;;;;5074088;28;20029;-44
2021/08/14 03:01:51;;;;;;;12.48;8.40;;;;;;;;;;5073994;28;20024;-47
2021/08/14 03:04:17;;;;;;;11.32;8.18;;;;;;;;;;5073857;28;20046;-45
2021/08/14 03:06:43;;;;;;;11.40;7.93;;;;;;;;;;5073809;28;20391;-49
2021/08/14 03:09:09;;;;;;;11.90;8.65;;;;;;;;;;5073718;28;20028;-48
2021/08/14 03:11:37;;;;;;;11.05;8.80;;;;;;;;;;5073568;28;20025;-44
2021/08/14 03:14:03;;;;;;;11.38;8.40;;;;;;;;;;5073776;28;20036;-46
2021/08/14 03:16:29;;;;;;;10.32;7.47;;;;;;;;;;5073524;28;20028;-46
2021/08/14 03:18:55;;;;;;;11.40;8.57;;;;;;;;;;5073489;28;20033;-45
2021/08/14 03:21:21;;;;;;;9.45;7.53;;;;;;;;;;5073500;28;20035;-46
2021/08/14 03:23:47;;;;;;;9.55;7.90;;;;;;;;;;5073456;28;20036;-44
2021/08/14 03:26:13;;;;;;;9.25;7.63;;;;;;;;;;5055471;28;20028;-45
2021/08/14 03:28:39;;;;;;;9.70;6.05;;;;;;;;;;5073319;28;20024;-46
2021/08/14 03:31:05;;;;;;;7.45;5.30;;;;;;;;;;5055397;28;20543;-45
2021/08/14 03:33:31;;;;;;;8.55;5.63;;;;;;;;;;5073291;28;20103;-46
2021/08/14 03:35:57;;;;;;;7.00;5.18;;;;;;;;;;5073221;28;20035;-48
2021/08/14 03:38:23;;;;;;;7.70;5.57;;;;;;;;;;5073247;28;20025;-47
2021/08/14 03:40:49;;;;;;;5.97;5.07;;;;;;;;;;5073086;28;20067;-45
2021/08/14 03:43:18;;;;;;;6.20;5.22;;;;;;;;;;5073284;28;20070;-46
2021/08/14 03:45:44;;;;;;;6.60;5.07;;;;;;;;;;5073012;28;20410;-46
2021/08/14 03:48:10;;;;;;;7.05;5.45;;;;;;;;;;5073056;28;20054;-45
2021/08/14 03:50:36;;;;;;;6.00;4.78;;;;;;;;;;5072979;28;20426;-45
2021/08/14 03:53:03;;;;;;;5.60;4.78;;;;;;;;;;5072999;28;20050;-44
2021/08/14 03:55:29;;;;;;;5.78;4.53;;;;;;;;;;5072822;28;20036;-45
2021/08/14 03:57:55;;;;;;;6.13;5.20;;;;;;;;;;5072721;28;20025;-46
2021/08/14 04:00:21;;;;;;;5.55;4.95;;;;;;;;;;5072827;28;20021;-45
2021/08/14 04:02:47;;;;;;;7.05;5.38;;;;;;;;;;5073063;28;20067;-45
2021/08/14 04:05:13;;;;;;;6.47;4.65;;;;;;;;;;5072862;28;20025;-46
2021/08/14 04:07:39;;;;;;;7.28;5.82;;;;;;;;;;5072520;28;20522;-45
2021/08/14 04:10:05;;;;;;;7.20;5.60;;;;;;;;;;5072535;28;20387;-47
2021/08/14 04:12:31;;;;;;;5.60;5.05;;;;;;;;;;5072573;28;20029;-45
2021/08/14 04:14:59;;;;;;;7.13;5.82;;;;;;;;;;5072423;28;20017;-44
2021/08/14 04:17:25;;;;;;;10.05;5.63;;;;;;;;;;5072178;28;20055;-44
2021/08/14 04:19:51;;;;;;;9.98;5.40;;;;;;;;;;5072276;28;20024;-44
2021/08/14 04:22:17;;;;;;;9.95;5.50;;;;;;;;;;5072223;28;20032;-45
2021/08/14 04:24:43;;;;;;;7.43;5.95;;;;;;;;;;5072182;28;20036;-45
2021/08/14 04:27:09;;;;;;;8.30;5.22;;;;;;;;;;5072085;28;20094;-47
2021/08/14 04:29:35;;;;;;;7.85;5.45;;;;;;;;;;5071600;28;20460;-44
2021/08/14 04:32:01;;;;;;;8.13;5.65;;;;;;;;;;5072136;28;20178;-46
2021/08/14 04:34:27;;;;;;;8.73;5.82;;;;;;;;;;5072096;28;20024;-45
2021/08/14 04:36:53;;;;;;;7.30;5.80;;;;;;;;;;5072050;28;20021;-44
2021/08/14 04:39:19;;;;;;;8.43;5.85;;;;;;;;;;5071987;28;20035;-44
2021/08/14 04:41:45;;;;;;;6.88;5.65;;;;;;;;;;5054052;28;20028;-44
2021/08/14 04:44:11;;;;;;;6.78;5.90;;;;;;;;;;5072000;28;20222;-46
2021/08/14 04:46:37;;;;;;;8.13;5.55;;;;;;;;;;5071889;28;20025;-45
2021/08/14 04:49:03;;;;;;;7.22;5.50;;;;;;;;;;5071712;28;20025;-45
2021/08/14 04:51:30;;;;;;;7.47;5.45;;;;;;;;;;5071912;28;20055;-46
2021/08/14 04:53:56;;;;;;;7.10;5.25;;;;;;;;;;5071695;28;20021;-44
2021/08/14 04:56:23;;;;;;;7.45;5.05;;;;;;;;;;5071778;28;20023;-45
2021/08/14 04:58:49;;;;;;;7.20;5.47;;;;;;;;;;5071742;28;20021;-44
2021/08/14 05:01:15;;;;;;;8.40;5.18;;;;;;;;;;5071678;28;20024;-45
2021/08/14 05:03:41;;;;;;;6.20;5.60;;;;;;;;;;5071878;28;20150;-46
2021/08/14 05:06:07;;;;;;;6.07;5.40;;;;;;;;;;5071869;28;20039;-44
2021/08/14 05:08:33;;;;;;;8.90;5.38;;;;;;;;;;5071869;28;20032;-44
2021/08/14 05:10:59;;;;;;;9.02;5.25;;;;;;;;;;5071625;28;20048;-44
2021/08/14 05:13:25;;;;;;;6.45;5.65;;;;;;;;;;5071571;28;20028;-44
2021/08/14 05:15:51;;;;;;;7.30;5.40;;;;;;;;;;5071574;28;20028;-45
2021/08/14 05:18:17;;;;;;;8.13;5.40;;;;;;;;;;5071086;28;20060;-45
2021/08/14 05:20:44;;;;;;;6.57;5.55;;;;;;;;;;5053652;28;20039;-44
2021/08/14 05:23:10;;;;;;;8.10;5.38;;;;;;;;;;5071456;28;20492;-45
2021/08/14 05:25:36;;;;;;;6.32;5.22;;;;;;;;;;5071373;28;20059;-44
2021/08/14 05:28:02;;;;;;;8.38;6.13;;;;;;;;;;5071257;28;20029;-48
2021/08/14 05:30:28;;;;;;;6.53;5.43;;;;;;;;;;5071479;28;20020;-46
2021/08/14 05:32:54;;;;;;;6.20;4.90;;;;;;;;;;5071659;28;20028;-45
2021/08/14 05:35:20;;;;;;;6.18;5.57;;;;;;;;;;5071301;28;20020;-45
2021/08/14 05:37:46;;;;;;;4.93;4.38;;;;;;;;;;5074145;28;20020;-46
2021/08/14 05:40:13;;;;;;;7.45;5.47;;;;;;;;;;5080932;28;20095;-45
2021/08/14 05:42:39;;;;;;;5.68;4.65;;;;;;;;;;5083134;28;20063;-44
2021/08/14 05:45:05;;;;;;;5.20;4.68;;;;;;;;;;5083967;28;20012;-46
2021/08/14 05:47:31;;;;;;;7.18;4.88;;;;;;;;;;5084899;28;20104;-46
2021/08/14 05:49:57;;;;;;;8.82;5.50;;;;;;;;;;5082817;28;20100;-46
2021/08/14 05:52:23;;;;;;;8.38;5.32;;;;;;;;;;5084067;28;20099;-44
2021/08/14 05:54:50;;;;;;;5.53;4.57;;;;;;;;;;5089595;28;20070;-45
2021/08/14 05:57:16;;;;;;;5.25;4.75;;;;;;;;;;5066818;28;20471;-44
2021/08/14 05:59:42;;;;;;;7.05;4.20;;;;;;;;;;5083302;28;20039;-45
2021/08/14 06:02:08;;;;;;;4.80;4.30;;;;;;;;;;5080238;28;20037;-46
2021/08/14 06:04:34;;;;;;;4.72;4.30;;;;;;;;;;5075000;28;20030;-46
2021/08/14 06:07:00;;;;;;;7.57;4.25;;;;;;;;;;5074930;28;20081;-46
2021/08/14 06:09:26;;;;;;;5.90;4.00;;;;;;;;;;5074705;28;20028;-45
2021/08/14 06:11:52;;;;;;;4.22;3.78;;;;;;;;;;5074744;28;20025;-46
2021/08/14 06:14:19;;;;;;;4.18;3.78;;;;;;;;;;5074603;28;20070;-47
2021/08/14 06:16:44;;;;;;;5.65;3.88;;;;;;;;;;5074495;28;20028;-45
2021/08/14 06:19:11;;;;;;;4.45;4.05;;;;;;;;;;5074544;28;20028;-46
2021/08/14 06:21:37;;;;;;;6.88;4.57;;;;;;;;;;5083185;28;20035;-47
2021/08/14 06:24:03;;;;;;;5.05;3.97;;;;;;;;;;5082811;28;20396;-46
2021/08/14 06:26:29;;;;;;;4.60;4.20;;;;;;;;;;5084321;28;20020;-44
2021/08/14 06:28:55;;;;;;;3.97;3.58;;;;;;;;;;5082417;28;20021;-45
2021/08/14 06:31:21;;;;;;;6.57;4.00;;;;;;;;;;5082875;28;20019;-45
2021/08/14 06:33:47;;;;;;;5.65;3.90;;;;;;;;;;5083959;28;20039;-47
2021/08/14 06:36:13;;;;;;;4.75;3.72;;;;;;;;;;5082338;28;20021;-45
2021/08/14 06:38:39;;;;;;;4.85;4.35;;;;;;;;;;5083002;28;20034;-46
2021/08/14 06:41:06;;;;;;;4.50;3.85;;;;;;;;;;5089377;28;20043;-46
2021/08/14 06:43:32;;;;;;;4.60;3.83;;;;;;;;;;5094332;28;20049;-46
2021/08/14 06:45:58;;;;;;;6.03;3.70;;;;;;;;;;5094554;28;20028;-46
2021/08/14 06:48:25;;;;;;;6.30;3.97;;;;;;;;;;5094249;28;20035;-45
2021/08/14 06:50:52;;;;;;;8.40;3.78;;;;;;;;;;5094274;28;20043;-46
2021/08/14 06:53:18;;;;;;;6.03;4.10;;;;;;;;;;5093965;28;20028;-47
2021/08/14 06:55:44;;;;;;;4.38;3.65;;;;;;;;;;5094073;28;20017;-48
2021/08/14 06:58:10;;;;;;;4.78;4.03;;;;;;;;;;5094063;28;20489;-47
2021/08/14 07:00:36;;;;;;;4.25;3.88;;;;;;;;;;5094055;28;20024;-46
2021/08/14 07:03:02;;;;;;;4.72;4.20;;;;;;;;;;5094424;28;20032;-46
2021/08/14 07:05:28;;;;;;;8.02;4.07;;;;;;;;;;5094211;28;20032;-45
2021/08/14 07:07:54;;;;;;;4.22;3.83;;;;;;;;;;5094134;28;20123;-49
2021/08/14 07:10:20;;;;;;;5.82;3.75;;;;;;;;;;5093765;28;20111;-48
2021/08/14 07:12:47;;;;;;;4.68;3.47;;;;;;;;;;5093733;28;20063;-46
2021/08/14 07:15:13;;;;;;;5.90;3.88;;;;;;;;;;5093174;28;20483;-45
2021/08/14 07:17:39;;;;;;;5.20;3.75;;;;;;;;;;5093577;28;20048;-45
2021/08/14 07:20:06;;;;;;;4.95;4.25;;;;;;;;;;5093656;28;20106;-48
2021/08/14 07:22:32;;;;;;;5.13;3.78;;;;;;;;;;5093529;28;20141;-48
2021/08/14 07:24:58;;;;;;;4.47;4.07;;;;;;;;;;5093536;28;20020;-45
2021/08/14 07:27:25;;;;;;;4.28;3.88;;;;;;;;;;5093795;28;20102;-44
2021/08/14 07:29:51;;;;;;;4.60;3.85;;;;;;;;;;5093491;28;20073;-44
2021/08/14 07:32:17;;;;;;;4.72;4.25;;;;;;;;;;5093420;28;20024;-45
2021/08/14 07:34:43;;;;;;;5.80;4.35;;;;;;;;;;5093315;28;20034;-44
2021/08/14 07:37:10;;;;;;;5.05;3.72;;;;;;;;;;5093286;28;20437;-44
2021/08/14 07:39:36;;;;;;;4.65;4.10;;;;;;;;;;5075127;28;20054;-46
2021/08/14 07:42:02;;;;;;;6.57;4.28;;;;;;;;;;5093249;28;20020;-45
2021/08/14 07:44:28;;;;;;;5.70;4.28;;;;;;;;;;5075333;28;20020;-47
2021/08/14 07:46:54;;;;;;;5.40;3.70;;;;;;;;;;5093194;28;20380;-47
2021/08/14 07:49:20;;;;;;;4.63;4.20;;;;;;;;;;5093128;28;20094;-46
2021/08/14 07:51:46;;;;;;;3.70;3.40;;;;;;;;;;5093041;28;20026;-45
2021/08/14 07:54:12;;;;;;;5.93;4.13;;;;;;;;;;5093009;28;20074;-45
2021/08/14 07:56:38;;;;;;;5.35;4.00;;;;;;;;;;5093080;28;20429;-45
2021/08/14 07:59:04;;;;;;;5.47;3.78;;;;;;;;;;5092913;28;20405;-46
2021/08/14 08:01:30;;;;;;;4.57;4.00;;;;;;;;;;5092721;28;20031;-45
2021/08/14 08:03:56;;;;;;;5.93;4.28;;;;;;;;;;5092036;28;20047;-47
2021/08/14 08:06:22;;;;;;;4.25;3.85;;;;;;;;;;5092823;28;20337;-45
2021/08/14 08:08:48;;;;;;;5.93;4.40;;;;;;;;;;5092696;28;20046;-45
2021/08/14 08:11:14;;;;;;;4.50;4.18;;;;;;;;;;5092453;28;20522;-46
2021/08/14 08:13:40;;;;;;;4.05;3.75;;;;;;;;;;5074323;28;20116;-45
2021/08/14 08:16:06;;;;;;;6.18;3.95;;;;;;;;;;5092400;28;20098;-44
2021/08/14 08:18:32;;;;;;;6.15;4.30;;;;;;;;;;5092263;28;20060;-44
2021/08/14 08:20:58;;;;;;;9.50;3.97;;;;;;;;;;5092393;28;20446;-47
2021/08/14 08:23:24;;;;;;;4.68;4.28;;;;;;;;;;5092299;28;20020;-46
2021/08/14 08:25:50;;;;;;;6.85;4.30;;;;;;;;;;5092328;28;20024;-45
2021/08/14 08:28:20;;;;;;;7.05;4.30;;;;;;;;;;5092025;28;20361;-45
2021/08/14 08:30:46;;;;;;;4.30;3.85;;;;;;;;;;5092194;28;20024;-45
2021/08/14 08:33:12;;;;;;;5.07;3.92;;;;;;;;;;5092520;28;20020;-47
2021/08/14 08:35:39;;;;;;;4.75;4.28;;;;;;;;;;5092605;28;20031;-45
2021/08/14 08:38:05;;;;;;;4.35;3.95;;;;;;;;;;5092015;28;20027;-47
2021/08/14 08:40:33;;;;;;;4.30;3.90;;;;;;;;;;5092020;28;20099;-46
2021/08/14 08:42:59;;;;;;;4.10;3.80;;;;;;;;;;5091902;28;20081;-48
2021/08/14 08:45:25;;;;;;;5.85;4.65;;;;;;;;;;5091989;28;20024;-46
2021/08/14 08:47:52;;;;;;;5.55;3.65;;;;;;;;;;5092010;28;20039;-45
2021/08/14 08:50:19;;;;;;;3.72;3.40;;;;;;;;;;5091795;28;20486;-45
2021/08/14 08:52:45;;;;;;;7.20;3.97;;;;;;;;;;5091868;28;20031;-44
2021/08/14 08:55:12;;;;;;;4.47;3.83;;;;;;;;;;5091872;28;20379;-44
2021/08/14 08:57:38;;;;;;;6.97;4.22;;;;;;;;;;5091896;28;20072;-45
2021/08/14 09:00:05;;;;;;;4.40;3.75;;;;;;;;;;5091698;28;20035;-45
2021/08/14 09:02:32;;;;;;;4.10;3.70;;;;;;;;;;5073575;28;20417;-44
2021/08/14 09:05:07;;;;;;;3.75;3.45;;;;;;;;;;5091524;28;20095;-45
2021/08/14 09:07:34;;;;;;;4.43;3.30;;;;;;;;;;5091491;28;20084;-44
2021/08/14 09:10:00;;;;;;;4.38;3.45;;;;;;;;;;5091264;28;20024;-45
2021/08/14 09:12:35;;;;;;;6.07;3.42;;;;;;;;;;5091490;28;20020;-45
2021/08/14 09:15:01;;;;;;;6.57;3.85;;;;;;;;;;5091437;28;20021;-46
2021/08/14 09:17:28;;;;;;;3.75;3.45;;;;;;;;;;5091197;28;20048;-47
2021/08/14 09:20:06;;;;;;;3.85;3.55;;;;;;;;;;5091658;28;20040;-45
2021/08/14 09:22:33;;;;;;;6.38;3.97;;;;;;;;;;5091461;28;20028;-46
2021/08/14 09:25:12;;;;;;;6.55;4.10;;;;;;;;;;5091522;28;20028;-44
2021/08/14 09:27:57;;;;;;;4.35;3.78;;;;;;;;;;5091444;28;20028;-44
2021/08/14 09:30:43;;;;;;;4.40;3.78;;;;;;;;;;5091557;28;20085;-44
2021/08/14 09:33:09;;;;;;;3.30;2.97;;;;;;;;;;5091428;28;20486;-45
2021/08/14 09:35:35;;;;;;;4.25;3.30;;;;;;;;;;5091475;28;20073;-45
2021/08/14 09:38:05;;;;;;;3.55;3.25;;;;;;;;;;5091351;28;20020;-44
2021/08/14 09:40:38;;;;;;;4.65;3.90;;;;;;;;;;5091550;28;20435;-45
2021/08/14 09:43:04;;;;;;;3.55;3.20;;;;;;;;;;5091357;28;20498;-45
2021/08/14 09:45:31;;;;;;;4.22;3.40;;;;;;;;;;5091518;28;20032;-45
2021/08/14 09:47:57;;;;;;;4.63;3.03;;;;;;;;;;5091254;28;20023;-45
2021/08/14 09:50:33;;;;;;;3.42;3.10;;;;;;;;;;5091258;28;20020;-48
2021/08/14 09:53:12;;;;;;;6.03;3.33;;;;;;;;;;5091068;28;20024;-45
2021/08/14 09:55:38;;;;;;;5.70;3.67;;;;;;;;;;5091334;28;20024;-46
2021/08/14 09:58:09;;;;;;;4.57;3.58;;;;;;;;;;5091252;28;20374;-47
2021/08/14 10:00:35;;;;;;;3.42;3.13;;;;;;;;;;5091262;28;20035;-47
2021/08/14 10:03:03;;;;;;;5.50;3.47;;;;;;;;;;5091117;28;20102;-45
2021/08/14 10:05:31;;;;;;;3.70;2.97;;;;;;;;;;5091064;28;20066;-46
2021/08/14 10:07:59;;;;;;;4.40;3.08;;;;;;;;;;5072879;28;20021;-47
2021/08/14 10:10:25;;;;;;;4.80;3.45;;;;;;;;;;5090961;28;20031;-46
2021/08/14 10:12:51;;;;;;;3.70;3.40;;;;;;;;;;5090996;28;20499;-44
2021/08/14 10:15:17;;;;;;;3.40;3.10;;;;;;;;;;5091090;28;20027;-44
2021/08/14 10:17:43;;;;;;;4.00;3.58;;;;;;;;;;5090755;28;20388;-45
2021/08/14 10:20:10;;;;;;;9.80;3.58;;;;;;;;;;5090929;28;20035;-44
2021/08/14 10:22:36;;;;;;;4.03;3.28;;;;;;;;;;5090987;28;20055;-44
2021/08/14 10:25:02;;;;;;;3.90;3.28;;;;;;;;;;5090864;28;20035;-45
2021/08/14 10:27:29;;;;;;;4.07;3.67;;;;;;;;;;5074514;28;20028;-49
2021/08/14 10:29:59;;;;;;;5.05;3.40;;;;;;;;;;5094482;28;20021;-46
2021/08/14 10:32:31;;;;;;;5.07;3.28;;;;;;;;;;5094463;28;20020;-47
2021/08/14 10:35:12;;;;;;;3.92;3.53;;;;;;;;;;5094439;28;20024;-46
2021/08/14 10:37:48;;;;;;;5.00;3.38;;;;;;;;;;5094479;28;20048;-45
2021/08/14 10:40:15;;;;;;;5.47;3.58;;;;;;;;;;5094314;28;20110;-47
2021/08/14 10:42:52;;;;;;;6.82;3.30;;;;;;;;;;5094263;28;20020;-47
2021/08/14 10:45:19;;;;;;;10.85;3.40;;;;;;;;;;5076227;28;20093;-46
2021/08/14 10:47:46;;;;;;;3.60;3.30;;;;;;;;;;5094434;28;20043;-45
2021/08/14 10:50:33;;;;;;;4.35;3.33;;;;;;;;;;5094163;28;20070;-47
2021/08/14 10:53:12;;;;;;;5.13;3.45;;;;;;;;;;5094203;28;20052;-46
2021/08/14 10:55:46;;;;;;;3.58;2.83;;;;;;;;;;5094497;28;20031;-45
2021/08/14 10:58:12;;;;;;;;;;;;;;;;;;5094434;28;20024;-45
2021/08/14 11:00:38;;;;;;;4.30;2.92;;;;;;;;;;5094071;28;20420;-45
2021/08/14 11:03:05;;;;;;;3.10;2.80;;;;;;;;;;5093943;28;20031;-47
2021/08/14 11:05:31;;;;;;;4.35;3.00;;;;;;;;;;5093838;28;20035;-45
2021/08/14 11:08:00;;;;;;;4.63;3.40;;;;;;;;;;5093813;28;20028;-48
2021/08/14 11:10:31;;;;;;;4.43;3.72;;;;;;;;;;5093831;28;20109;-45
2021/08/14 11:12:57;;;;;;;4.30;3.17;;;;;;;;;;5093606;28;20356;-46
2021/08/14 11:15:27;;;;;;;3.22;2.80;;;;;;;;;;5075823;28;20097;-46
2021/08/14 11:17:55;;;;;;;5.97;3.63;;;;;;;;;;5093594;28;20044;-47
2021/08/14 11:20:25;;;;;;;3.90;3.50;;;;;;;;;;5075606;28;20067;-48
2021/08/14 11:22:52;;;;;;;3.33;3.03;;;;;;;;;;5093813;28;20074;-44
2021/08/14 11:25:26;;;;;;;3.90;3.13;;;;;;;;;;5093576;28;20478;-46
2021/08/14 11:27:56;;;;;;;2.97;2.72;;;;;;;;;;5093574;28;20450;-44
2021/08/14 11:30:25;;;;;;;3.55;2.90;;;;;;;;;;5093400;28;20024;-45
2021/08/14 11:32:52;;;;;;;3.28;2.97;;;;;;;;;;5093788;28;20903;-47
2021/08/14 11:35:20;;;;;;;3.17;2.90;;;;;;;;;;5093297;28;20027;-45
2021/08/14 11:38:15;;;;;;;3.38;3.08;;;;;;;;;;5093703;28;20024;-45
2021/08/14 11:40:45;;;;;;;4.60;3.05;;;;;;;;;;5071991;28;20055;-47
2021/08/14 11:43:12;;;;;;;3.90;3.50;;;;;;;;;;5093114;28;20028;-45
2021/08/14 11:45:40;;;;;;;4.32;2.90;;;;;;;;;;5093067;28;20047;-45
2021/08/14 11:48:07;;;;;;;5.35;3.13;;;;;;;;;;5092983;28;20487;-46
2021/08/14 11:50:37;;;;;;;3.38;3.08;;;;;;;;;;5092961;28;20490;-46
2021/08/14 11:53:04;;;;;;;3.50;3.20;;;;;;;;;;5092928;28;20043;-48
2021/08/14 11:55:30;;;;;;;4.07;3.28;;;;;;;;;;5074756;28;20031;-46
2021/08/14 11:57:56;;;;;;;3.20;3.00;;;;;;;;;;5092808;28;20016;-46
2021/08/14 12:00:23;;;;;;;3.40;3.10;;;;;;;;;;5092862;28;20036;-46
2021/08/14 12:02:49;;;;;;;5.65;2.60;;;;;;;;;;5092730;28;20132;-46
2021/08/14 12:05:25;;;;;;;5.13;2.83;;;;;;;;;;5093039;28;20470;-47
2021/08/14 12:07:51;;;;;;;3.13;2.90;;;;;;;;;;5092824;28;20028;-45
2021/08/14 12:10:20;;;;;;;4.13;2.95;;;;;;;;;;5092628;28;20027;-48
2021/08/14 12:13:00;;;;;;;3.75;3.03;;;;;;;;;;5092867;28;20020;-47
2021/08/14 12:15:39;;;;;;;3.40;3.10;;;;;;;;;;5092484;28;20030;-46
2021/08/14 12:18:05;;;;;;;3.65;2.92;;;;;;;;;;5092345;28;20399;-45
2021/08/14 12:20:32;;;;;;;2.92;2.55;;;;;;;;;;5092412;28;20043;-46
2021/08/14 12:23:17;;;;;;;2.95;2.75;;;;;;;;;;5092427;28;20035;-45
2021/08/14 12:25:49;;;;;;;2.60;2.40;;;;;;;;;;5092517;28;20032;-47
2021/08/14 12:28:15;;;;;;;3.55;2.67;;;;;;;;;;5074392;28;20024;-45
2021/08/14 12:30:42;;;;;;;2.70;2.50;;;;;;;;;;5092243;28;20039;-45
2021/08/14 12:33:27;;;;;;;3.00;2.80;;;;;;;;;;5092194;28;20384;-45
2021/08/14 12:36:04;;;;;;;3.83;2.75;;;;;;;;;;5092477;28;20024;-46
2021/08/14 12:38:31;;;;;;;2.72;2.53;;;;;;;;;;5092032;28;20463;-46
2021/08/14 12:40:57;;;;;;;3.00;2.80;;;;;;;;;;5092045;28;20111;-45
2021/08/14 12:43:24;;;;;;;3.17;2.88;;;;;;;;;;5091958;28;20023;-46
2021/08/14 12:45:51;;;;;;;3.30;3.00;;;;;;;;;;5092125;28;20140;-46
2021/08/14 12:48:17;;;;;;;4.63;2.90;;;;;;;;;;5092012;28;20024;-45
2021/08/14 12:50:44;;;;;;;3.20;2.90;;;;;;;;;;5091514;28;20450;-46
2021/08/14 12:53:11;;;;;;;3.13;2.72;;;;;;;;;;5092062;28;20031;-46
2021/08/14 12:55:37;;;;;;;3.28;2.97;;;;;;;;;;5091777;28;20028;-47
2021/08/14 12:58:07;;;;;;;2.88;2.67;;;;;;;;;;5091923;28;20026;-46
2021/08/14 13:00:34;;;;;;;4.95;3.45;;;;;;;;;;5091649;28;20103;-45
2021/08/14 13:03:00;;;;;;;2.83;2.60;;;;;;;;;;5091962;28;20030;-45
2021/08/14 13:05:27;;;;;;;3.00;2.72;;;;;;;;;;5091897;28;20471;-48
2021/08/14 13:07:53;;;;;;;3.28;2.95;;;;;;;;;;5091843;28;20028;-45
2021/08/14 13:10:20;;;;;;;2.60;2.40;;;;;;;;;;5091568;28;20067;-45
2021/08/14 13:12:49;;;;;;;3.22;2.95;;;;;;;;;;5091648;28;20394;-44
2021/08/14 13:15:15;;;;;;;3.03;2.67;;;;;;;;;;5091620;28;20023;-46
2021/08/14 13:17:42;;;;;;;2.70;2.55;;;;;;;;;;5091639;28;20097;-47
2021/08/14 13:20:08;;;;;;;3.00;2.80;;;;;;;;;;5091566;28;20040;-47
2021/08/14 13:22:34;;;;;;;3.55;2.83;;;;;;;;;;5091605;28;20087;-47
2021/08/14 13:25:00;;;;;;;2.78;2.58;;;;;;;;;;5091662;28;20032;-46
2021/08/14 13:27:26;;;;;;;2.83;2.63;;;;;;;;;;5073297;28;20077;-47
2021/08/14 13:29:52;;;;;;;5.32;2.60;;;;;;;;;;5091274;28;20414;-48
2021/08/14 13:32:18;;;;;;;2.83;2.63;;;;;;;;;;5091408;28;20024;-47
2021/08/14 13:34:46;;;;;;;4.00;2.30;;;;;;;;;;5091537;28;20032;-46
2021/08/14 13:37:13;;;;;;;2.85;2.45;;;;;;;;;;5091495;28;20026;-47
2021/08/14 13:39:39;;;;;;;3.35;2.83;;;;;;;;;;5091407;28;20013;-45
2021/08/14 13:42:06;;;;;;;3.10;2.50;;;;;;;;;;5091154;28;20024;-46
2021/08/14 13:44:32;;;;;;;2.80;2.60;;;;;;;;;;5091298;28;20020;-47
2021/08/14 13:46:58;;;;;;;2.80;2.47;;;;;;;;;;5091317;28;20020;-46
2021/08/14 13:49:25;;;;;;;2.63;2.42;;;;;;;;;;5091231;28;20020;-47
2021/08/14 13:51:51;;;;;;;3.60;2.50;;;;;;;;;;5091327;28;20099;-46
2021/08/14 13:54:17;;;;;;;2.60;2.40;;;;;;;;;;5091447;28;20109;-45
2021/08/14 13:56:43;;;;;;;4.05;2.30;;;;;;;;;;5073098;28;20493;-48
2021/08/14 13:59:09;;;;;;;3.47;2.70;;;;;;;;;;5091207;28;20109;-47
2021/08/14 14:01:35;;;;;;;4.05;2.72;;;;;;;;;;5091416;28;20081;-45
2021/08/14 14:04:01;;;;;;;2.72;2.53;;;;;;;;;;5095121;28;20024;-47
2021/08/14 14:06:27;;;;;;;3.90;2.90;;;;;;;;;;5076879;28;20418;-48
2021/08/14 14:08:53;;;;;;;3.35;2.97;;;;;;;;;;5094872;28;20378;-45
2021/08/14 14:11:19;;;;;;;3.70;2.60;;;;;;;;;;5094983;28;20452;-45
2021/08/14 14:13:45;;;;;;;3.95;2.65;;;;;;;;;;5094945;28;20024;-46
2021/08/14 14:16:12;;;;;;;2.70;2.45;;;;;;;;;;5095036;28;20028;-46
2021/08/14 14:18:38;;;;;;;3.03;2.63;;;;;;;;;;5094802;28;20095;-48
2021/08/14 14:21:04;;;;;;;2.50;2.30;;;;;;;;;;5076551;28;20027;-45
2021/08/14 14:23:30;;;;;;;2.55;2.35;;;;;;;;;;5094731;28;20082;-47
2021/08/14 14:25:57;;;;;;;2.70;2.50;;;;;;;;;;5094696;28;20016;-46
2021/08/14 14:28:23;;;;;;;4.40;2.88;;;;;;;;;;5094530;28;20510;-47
2021/08/14 14:30:49;;;;;;;3.03;2.72;;;;;;;;;;5094691;28;20016;-46
2021/08/14 14:33:15;;;;;;;3.97;2.70;;;;;;;;;;5094570;28;20361;-51
2021/08/14 14:35:41;;;;;;;2.90;2.70;;;;;;;;;;5094612;28;20034;-49
2021/08/14 14:38:08;;;;;;;2.83;2.63;;;;;;;;;;5094662;28;20020;-46
2021/08/14 14:40:34;;;;;;;2.60;2.40;;;;;;;;;;5094286;28;20111;-49
2021/08/14 14:43:00;;;;;;;3.95;3.10;;;;;;;;;;5094401;28;20035;-47